Time;durP1;ratioP1;P1;durP2;ratioP2;P2;SDS_P1;SDS_P2;PMS_P1;PMS_P2;Temp;Humidity;BMP_temperature;BMP_pressure;BME280_temperature;BME280_humidity;BME280_pressure;Samples;Min_cycle;Max_cycle;Signal;HPM_P1;HPM_P2
2023/10/23 00:00:14;;;;;;;16.00;9.20;;;12.80;99.90;;;;;;10285091;28;20288;-86
2023/10/23 00:05:16;;;;;;;9.53;7.53;;;12.80;99.90;;;;;;10283980;28;20232;-86
2023/10/23 00:10:19;;;;;;;11.70;8.90;;;12.90;99.90;;;;;;10284610;28;20716;-86
2023/10/23 00:15:22;;;;;;;13.43;8.23;;;12.90;99.90;;;;;;10269051;28;20265;-86
2023/10/23 00:20:24;;;;;;;10.77;8.97;;;12.80;99.90;;;;;;10268465;28;20233;-86
2023/10/23 00:25:27;;;;;;;9.73;7.83;;;12.60;99.90;;;;;;10285745;28;20237;-86
2023/10/23 00:30:34;;;;;;;10.40;7.40;;;12.60;99.90;;;;;;10284618;28;20245;-86
2023/10/23 00:35:37;;;;;;;13.97;8.47;;;12.50;99.90;;;;;;10285889;28;20304;-86
2023/10/23 00:40:39;;;;;;;12.67;8.00;;;12.40;99.90;;;;;;10267914;28;20253;-85
2023/10/23 00:45:53;;;;;;;9.90;7.30;;;12.70;99.90;;;;;;10285521;28;20234;-85
2023/10/23 00:50:57;;;;;;;14.77;7.70;;;12.60;99.90;;;;;;10285568;28;20665;-86
2023/10/23 00:56:04;;;;;;;12.03;7.13;;;12.20;99.90;;;;;;10285395;28;20241;-86
2023/10/23 01:01:12;;;;;;;11.07;8.17;;;12.30;99.90;;;;;;10285037;28;20280;-86
2023/10/23 01:06:15;;;;;;;13.50;7.97;;;12.20;99.90;;;;;;10268324;28;20324;-86
2023/10/23 01:11:17;;;;;;;11.30;8.07;;;12.40;99.90;;;;;;10269390;28;20288;-86
2023/10/23 01:16:20;;;;;;;13.43;8.33;;;12.40;99.90;;;;;;10274673;28;20295;-86
2023/10/23 01:21:23;;;;;;;10.30;8.10;;;12.40;99.90;;;;;;10292299;28;20289;-85
2023/10/23 01:26:25;;;;;;;10.07;7.63;;;12.30;99.90;;;;;;10273106;28;20790;-86
2023/10/23 01:31:28;;;;;;;9.03;7.20;;;12.20;99.90;;;;;;10273626;28;20284;-85
2023/10/23 01:36:31;;;;;;;11.10;8.20;;;12.20;99.90;;;;;;10260204;28;20292;-86
2023/10/23 01:41:34;;;;;;;11.37;7.53;;;12.10;99.90;;;;;;10290900;28;20261;-86
2023/10/23 01:46:36;;;;;;;12.17;8.20;;;12.10;99.90;;;;;;10274070;28;20304;-86
2023/10/23 01:51:39;;;;;;;11.63;7.80;;;12.00;99.90;;;;;;10291268;28;20664;-86
2023/10/23 01:56:43;;;;;;;11.53;7.73;;;12.10;99.90;;;;;;10252596;28;20249;-86
2023/10/23 02:01:46;;;;;;;9.20;7.40;;;12.00;99.90;;;;;;10271052;28;20241;-86
2023/10/23 02:06:48;;;;;;;8.93;7.03;;;12.00;99.90;;;;;;10273068;28;20315;-86
2023/10/23 02:11:51;;;;;;;9.67;7.07;;;11.60;99.90;;;;;;10272634;28;20241;-86
2023/10/23 02:16:53;;;;;;;9.57;7.27;;;11.40;99.90;;;;;;10271111;28;20292;-86
2023/10/23 02:21:56;;;;;;;11.27;7.77;;;11.20;99.90;;;;;;10271745;28;20238;-86
2023/10/23 02:26:59;;;;;;;8.20;7.30;;;11.10;99.90;;;;;;10288776;28;20311;-86
2023/10/23 02:32:01;;;;;;;11.03;8.00;;;11.00;99.90;;;;;;10289381;28;20632;-86
2023/10/23 02:37:04;;;;;;;29.33;11.77;;;11.00;99.90;;;;;;10289064;28;20675;-86
2023/10/23 02:42:07;;;;;;;13.60;7.53;;;10.90;99.90;;;;;;10271286;28;20327;-86
2023/10/23 02:47:10;;;;;;;13.00;8.17;;;10.80;99.90;;;;;;10289223;28;20323;-86
2023/10/23 02:52:15;;;;;;;18.37;10.23;;;10.70;99.90;;;;;;10271663;28;20298;-86
2023/10/23 02:57:18;;;;;;;13.80;7.93;;;10.60;99.90;;;;;;10288038;28;20633;-86
2023/10/23 03:02:20;;;;;;;9.67;7.10;;;10.60;99.90;;;;;;10270605;28;20241;-86
2023/10/23 03:07:23;;;;;;;12.67;8.10;;;10.70;99.90;;;;;;10270730;28;20280;-86
2023/10/23 03:12:26;;;;;;;10.17;7.57;;;10.80;99.90;;;;;;10264881;28;20324;-85
2023/10/23 03:17:29;;;;;;;11.50;7.03;;;10.80;99.90;;;;;;10270321;28;20229;-85
2023/10/23 03:22:32;;;;;;;8.13;7.17;;;11.20;99.90;;;;;;10269666;28;20300;-85
2023/10/23 03:27:35;;;;;;;9.90;7.70;;;11.60;99.90;;;;;;10268992;28;20704;-85
2023/10/23 03:32:39;;;;;;;11.60;7.77;;;11.60;99.90;;;;;;10286277;28;20717;-85
2023/10/23 03:37:42;;;;;;;13.07;7.87;;;11.60;99.90;;;;;;10270143;28;20619;-85
2023/10/23 03:42:45;;;;;;;9.50;7.83;;;11.30;99.90;;;;;;10304441;28;20237;-85
2023/10/23 03:47:47;;;;;;;13.47;7.70;;;11.20;99.90;;;;;;10293420;28;20332;-85
2023/10/23 03:52:50;;;;;;;7.80;6.97;;;11.20;99.90;;;;;;10268269;28;20233;-85
2023/10/23 03:57:52;;;;;;;10.87;7.20;;;11.20;99.90;;;;;;10284545;28;20241;-86
2023/10/23 04:02:55;;;;;;;13.80;8.53;;;11.10;99.90;;;;;;10285597;28;20646;-86
2023/10/23 04:07:58;;;;;;;14.67;9.07;;;11.00;99.90;;;;;;10268682;28;20292;-86
2023/10/23 04:13:01;;;;;;;19.67;13.50;;;10.80;99.90;;;;;;10286457;28;20245;-86
2023/10/23 04:18:04;;;;;;;13.70;11.33;;;10.70;99.90;;;;;;10284761;28;20918;-86
2023/10/23 04:23:07;;;;;;;18.97;11.40;;;10.70;99.90;;;;;;10285803;28;20237;-86
2023/10/23 04:28:09;;;;;;;14.73;10.50;;;10.60;99.90;;;;;;10284989;28;20324;-86
2023/10/23 04:33:12;;;;;;;14.00;9.90;;;10.60;99.90;;;;;;10284845;28;20696;-86
2023/10/23 04:38:15;;;;;;;15.83;10.77;;;10.50;99.90;;;;;;10284884;28;20776;-86
2023/10/23 04:43:17;;;;;;;18.10;11.73;;;10.60;99.90;;;;;;10294066;28;20241;-85
2023/10/23 04:48:20;;;;;;;15.73;11.07;;;10.70;99.90;;;;;;10304148;28;20664;-85
2023/10/23 04:53:22;;;;;;;13.63;9.57;;;10.60;99.90;;;;;;10308427;28;20236;-85
2023/10/23 04:58:26;;;;;;;12.27;8.23;;;10.80;99.90;;;;;;10285288;28;20228;-84
2023/10/23 05:03:29;;;;;;;10.07;7.83;;;11.30;99.90;;;;;;10285711;28;20685;-85
2023/10/23 05:08:32;;;;;;;20.00;10.43;;;11.50;99.90;;;;;;10292075;28;20702;-85
2023/10/23 05:13:35;;;;;;;14.20;7.87;;;11.20;99.90;;;;;;10290236;28;20241;-84
2023/10/23 05:18:37;;;;;;;18.10;12.00;;;11.30;99.90;;;;;;10291437;28;20624;-84
2023/10/23 05:23:41;;;;;;;22.73;12.67;;;11.50;99.90;;;;;;10290275;28;20237;-84
2023/10/23 05:28:43;;;;;;;25.73;15.37;;;11.50;99.90;;;;;;10290129;28;20323;-84
2023/10/23 05:33:46;;;;;;;20.80;11.67;;;10.50;99.90;;;;;;10272706;28;20688;-83
2023/10/23 05:38:48;;;;;;;17.83;12.60;;;9.80;99.90;;;;;;10290057;28;20673;-83
2023/10/23 05:43:51;;;;;;;19.07;12.67;;;9.50;99.90;;;;;;10288716;28;20261;-83
2023/10/23 05:48:53;;;;;;;10.70;6.87;;;9.30;99.90;;;;;;10271932;28;20999;-84
2023/10/23 05:53:57;;;;;;;10.77;8.73;;;9.40;99.90;;;;;;10288802;28;20287;-83
2023/10/23 05:58:59;;;;;;;12.80;7.90;;;10.00;99.90;;;;;;10271203;28;20316;-84
2023/10/23 06:04:04;;;;;;;10.93;7.23;;;10.10;99.90;;;;;;10288767;28;20265;-84
2023/10/23 06:09:07;;;;;;;9.47;6.63;;;10.00;99.90;;;;;;10289681;28;20733;-84
2023/10/23 06:14:10;;;;;;;14.47;8.63;;;10.00;99.90;;;;;;10289086;28;20245;-83
2023/10/23 06:19:13;;;;;;;28.03;13.67;;;9.90;99.90;;;;;;10267504;28;20651;-84
2023/10/23 06:24:15;;;;;;;10.10;7.77;;;9.90;99.90;;;;;;10265071;28;20238;-85
2023/10/23 06:29:18;;;;;;;22.50;14.80;;;10.10;99.90;;;;;;10259821;28;20252;-85
2023/10/23 06:34:20;;;;;;;23.97;16.50;;;10.10;99.90;;;;;;10288985;28;20625;-85
2023/10/23 06:39:23;;;;;;;17.47;12.83;;;10.10;99.90;;;;;;10287756;28;20261;-85
2023/10/23 06:44:25;;;;;;;22.43;14.43;;;10.20;99.90;;;;;;10270974;28;20253;-85
2023/10/23 06:49:28;;;;;;;20.20;14.80;;;10.40;99.90;;;;;;10284975;28;20295;-85
2023/10/23 06:54:30;;;;;;;22.17;14.00;;;10.70;99.90;;;;;;10287764;28;20233;-85
2023/10/23 06:59:33;;;;;;;14.83;11.77;;;10.60;99.90;;;;;;10270183;28;20240;-85
2023/10/23 07:04:39;;;;;;;19.80;12.67;;;10.50;99.90;;;;;;10295947;28;20240;-85
2023/10/23 07:09:42;;;;;;;20.97;14.83;;;10.60;99.90;;;;;;10299183;28;20249;-84
2023/10/23 07:14:44;;;;;;;22.40;14.93;;;10.80;99.90;;;;;;10285646;28;20303;-85
2023/10/23 07:19:47;;;;;;;22.10;15.47;;;11.20;99.90;;;;;;10301733;28;20237;-85
2023/10/23 07:24:49;;;;;;;25.83;18.67;;;11.60;99.90;;;;;;10285930;28;20749;-85
2023/10/23 07:29:53;;;;;;;25.13;16.90;;;11.60;99.90;;;;;;10281860;28;20264;-85
2023/10/23 07:34:55;;;;;;;20.57;13.93;;;11.70;99.90;;;;;;10264707;28;20688;-85
2023/10/23 07:39:58;;;;;;;18.93;13.70;;;11.80;99.90;;;;;;10283619;28;20736;-85
2023/10/23 07:45:18;;;;;;;16.23;11.33;;;12.20;99.90;;;;;;10234951;28;20276;-85
2023/10/23 07:50:23;;;;;;;14.47;9.87;;;12.30;99.90;;;;;;10228183;29;20324;-85
2023/10/23 07:55:26;;;;;;;15.27;10.57;;;12.30;99.90;;;;;;10269215;28;20264;-85
2023/10/23 08:00:28;;;;;;;17.73;11.33;;;12.50;99.90;;;;;;10324843;28;20228;-85
2023/10/23 08:05:31;;;;;;;12.90;9.10;;;12.60;99.90;;;;;;10296299;28;20318;-85
2023/10/23 08:10:33;;;;;;;18.80;9.63;;;12.80;99.90;;;;;;10283996;28;20261;-85
2023/10/23 08:15:38;;;;;;;10.33;8.87;;;13.00;99.90;;;;;;10283453;28;20241;-85
2023/10/23 08:20:40;;;;;;;14.43;9.53;;;13.10;99.90;;;;;;10284434;28;20637;-85
2023/10/23 08:25:44;;;;;;;12.70;10.43;;;13.40;99.90;;;;;;10292768;28;20233;-85
2023/10/23 08:30:46;;;;;;;17.10;12.07;;;13.50;99.90;;;;;;10283485;28;20252;-85
2023/10/23 08:35:49;;;;;;;15.97;10.00;;;13.70;99.90;;;;;;10299840;28;20292;-85
2023/10/23 08:40:54;;;;;;;13.07;10.17;;;13.80;99.90;;;;;;10292062;28;20331;-85
2023/10/23 08:46:02;;;;;;;12.13;9.43;;;13.90;99.90;;;;;;10292550;28;20296;-85
2023/10/23 08:51:07;;;;;;;11.73;9.53;;;14.10;99.90;;;;;;10291145;28;20322;-84
2023/10/23 08:56:10;;;;;;;12.77;8.87;;;14.20;99.90;;;;;;10291135;28;20240;-84
2023/10/23 09:01:15;;;;;;;14.57;9.63;;;14.10;99.90;;;;;;10291852;28;20249;-85
2023/10/23 09:06:18;;;;;;;13.93;9.30;;;14.10;99.90;;;;;;10274980;28;20676;-85
2023/10/23 09:11:36;;;;;;;14.00;10.03;;;14.50;99.90;;;;;;10310327;28;20296;-84
2023/10/23 09:16:38;;;;;;;13.17;9.83;;;14.90;99.90;;;;;;10291141;28;20281;-85
2023/10/23 09:21:41;;;;;;;12.87;9.80;;;15.10;99.90;;;;;;10289570;28;20643;-85
2023/10/23 09:26:44;;;;;;;16.13;11.07;;;15.20;99.90;;;;;;10290168;28;20237;-84
2023/10/23 09:31:47;;;;;;;16.83;10.43;;;15.20;99.90;;;;;;10260118;28;20254;-84
2023/10/23 09:36:51;;;;;;;14.20;10.83;;;15.20;99.90;;;;;;10250934;28;20226;-84
2023/10/23 09:41:55;;;;;;;12.67;10.00;;;15.40;99.90;;;;;;10268252;28;20339;-84
2023/10/23 09:46:59;;;;;;;14.20;10.50;;;15.40;99.90;;;;;;10272769;28;20730;-84
2023/10/23 09:52:07;;;;;;;13.43;10.73;;;15.30;99.90;;;;;;10289060;28;20881;-84
2023/10/23 09:57:13;;;;;;;11.43;8.73;;;15.40;99.90;;;;;;10288900;28;20292;-84
2023/10/23 10:02:18;;;;;;;11.97;9.47;;;15.40;99.90;;;;;;10287992;28;20237;-84
2023/10/23 10:07:34;;;;;;;11.87;10.40;;;15.50;99.90;;;;;;10289100;28;20283;-84
2023/10/23 10:12:38;;;;;;;13.23;10.23;;;15.50;99.90;;;;;;10288488;28;20258;-84
2023/10/23 10:17:42;;;;;;;10.50;8.47;;;15.60;99.90;;;;;;10287407;28;20233;-84
2023/10/23 10:23:04;;;;;;;9.97;8.83;;;15.40;99.90;;;;;;10289070;28;20272;-85
2023/10/23 10:28:08;;;;;;;11.83;8.53;;;15.50;99.90;;;;;;10270677;28;20265;-85
2023/10/23 10:33:25;;;;;;;8.30;7.50;;;15.40;99.90;;;;;;10270832;28;20650;-85
2023/10/23 10:38:48;;;;;;;12.23;9.03;;;15.40;99.90;;;;;;10287227;28;20653;-84
2023/10/23 10:43:52;;;;;;;14.63;9.43;;;15.50;99.90;;;;;;10286125;28;20245;-85
2023/10/23 10:48:55;;;;;;;8.80;7.90;;;15.50;99.90;;;;;;10287318;28;20312;-84
2023/10/23 10:54:03;;;;;;;12.30;9.30;;;15.60;99.90;;;;;;10287010;28;20230;-84
2023/10/23 10:59:05;;;;;;;13.93;9.07;;;15.70;99.90;;;;;;10278000;28;20257;-85
2023/10/23 11:04:09;;;;;;;11.43;8.00;;;15.80;99.90;;;;;;10286194;28;20248;-84
2023/10/23 11:09:29;;;;;;;10.97;7.93;;;15.80;99.90;;;;;;10287324;28;20260;-84
2023/10/23 11:14:32;;;;;;;9.57;7.03;;;15.90;99.90;;;;;;10268674;28;20276;-82
2023/10/23 11:19:35;;;;;;;7.00;4.43;;;15.90;99.90;;;;;;10264871;28;20268;-85
2023/10/23 11:25:06;;;;;;;6.10;4.63;;;16.10;99.90;;;;;;10324466;28;20607;-85
2023/10/23 11:30:09;;;;;;;4.73;4.27;;;16.00;99.90;;;;;;10307219;28;20265;-85
2023/10/23 11:35:12;;;;;;;8.07;5.00;;;16.00;99.90;;;;;;10285952;28;20237;-85
2023/10/23 11:40:20;;;;;;;5.07;4.27;;;16.10;99.90;;;;;;10311808;28;20849;-85
2023/10/23 11:45:23;;;;;;;5.27;4.00;;;16.10;99.90;;;;;;10276109;28;20233;-85
2023/10/23 11:50:26;;;;;;;5.30;3.83;;;16.10;99.90;;;;;;10228147;29;20270;-85
2023/10/23 11:55:29;;;;;;;5.90;3.53;;;16.20;99.90;;;;;;10228229;28;20297;-85
2023/10/23 12:00:34;;;;;;;4.97;3.83;;;16.40;99.90;;;;;;10262388;28;20924;-84
2023/10/23 12:05:37;;;;;;;2.83;2.57;;;16.40;99.90;;;;;;10266499;28;20299;-83
2023/10/23 12:10:39;;;;;;;5.23;2.80;;;16.50;99.90;;;;;;10253146;28;20258;-85
2023/10/23 12:15:42;;;;;;;4.30;3.17;;;16.50;99.90;;;;;;10246058;29;20249;-85
2023/10/23 12:20:44;;;;;;;3.83;2.33;;;16.30;99.10;;;;;;10246231;29;20817;-85
2023/10/23 12:25:47;;;;;;;6.33;2.83;;;16.20;99.90;;;;;;10245469;29;20297;-85
2023/10/23 12:30:49;;;;;;;5.70;2.80;;;16.00;99.90;;;;;;10228748;29;20265;-85
2023/10/23 12:35:52;;;;;;;4.27;2.50;;;16.20;99.90;;;;;;10245486;29;20237;-85
2023/10/23 12:40:54;;;;;;;6.57;3.70;;;16.20;99.90;;;;;;10245122;28;20334;-85
2023/10/23 12:45:57;;;;;;;5.27;3.50;;;16.20;99.90;;;;;;10245361;29;20286;-85
2023/10/23 12:51:00;;;;;;;3.77;3.10;;;15.80;99.90;;;;;;10228810;29;20891;-85
2023/10/23 12:56:02;;;;;;;3.43;3.10;;;15.60;99.90;;;;;;10245044;29;20822;-85
2023/10/23 13:01:05;;;;;;;4.47;3.40;;;15.40;99.90;;;;;;10245181;28;20753;-85
2023/10/23 13:06:08;;;;;;;3.60;3.30;;;15.30;99.90;;;;;;10288989;28;20627;-85
2023/10/23 13:11:10;;;;;;;3.13;2.70;;;15.20;99.90;;;;;;10274853;28;20261;-85
2023/10/23 13:16:13;;;;;;;4.23;3.37;;;15.20;99.90;;;;;;10292171;28;20237;-85
2023/10/23 13:21:18;;;;;;;5.33;3.53;;;15.40;99.90;;;;;;10290867;28;20293;-83
2023/10/23 13:26:37;;;;;;;3.97;3.50;;;15.60;99.90;;;;;;10276665;28;20238;-85
2023/10/23 13:31:40;;;;;;;4.60;3.93;;;15.80;99.90;;;;;;10273232;28;20661;-85
2023/10/23 13:36:43;;;;;;;2.77;2.53;;;15.70;99.90;;;;;;10281218;28;20253;-85
2023/10/23 13:41:45;;;;;;;5.53;3.63;;;15.70;99.90;;;;;;10291487;28;20276;-85
2023/10/23 13:46:48;;;;;;;3.10;2.73;;;15.60;99.90;;;;;;10294985;28;20268;-85
2023/10/23 13:51:51;;;;;;;3.70;3.10;;;15.60;99.90;;;;;;10273885;28;20284;-85
2023/10/23 13:56:53;;;;;;;5.10;3.40;;;15.50;99.90;;;;;;10289571;28;20303;-85
2023/10/23 14:01:56;;;;;;;3.23;2.93;;;15.60;99.90;;;;;;10288631;28;20627;-85
2023/10/23 14:06:59;;;;;;;4.53;3.43;;;15.50;99.90;;;;;;10317118;28;20689;-85
2023/10/23 14:12:02;;;;;;;6.17;3.40;;;15.40;99.90;;;;;;10302983;28;20257;-85
2023/10/23 14:17:05;;;;;;;4.87;3.17;;;15.50;99.90;;;;;;10288937;28;20767;-85
2023/10/23 14:22:07;;;;;;;3.57;2.90;;;15.50;99.90;;;;;;10271325;28;20241;-85
2023/10/23 14:27:10;;;;;;;3.20;2.90;;;15.50;99.90;;;;;;10281764;28;20235;-85
2023/10/23 14:32:13;;;;;;;4.70;3.00;;;15.40;99.90;;;;;;10271654;28;20313;-85
2023/10/23 14:37:15;;;;;;;5.90;3.40;;;15.30;99.90;;;;;;10288267;28;20324;-85
2023/10/23 14:42:18;;;;;;;4.40;2.90;;;15.30;99.90;;;;;;10285993;28;20261;-85
2023/10/23 14:47:21;;;;;;;3.00;2.70;;;15.20;99.90;;;;;;10287627;28;20269;-85
2023/10/23 14:52:23;;;;;;;3.57;2.93;;;15.00;99.90;;;;;;10296313;28;20909;-85
2023/10/23 14:57:26;;;;;;;3.50;3.00;;;14.90;99.90;;;;;;10285695;28;20233;-85
2023/10/23 15:02:29;;;;;;;6.00;3.70;;;14.80;99.90;;;;;;10287549;28;20317;-85
2023/10/23 15:07:31;;;;;;;3.83;2.93;;;14.20;99.90;;;;;;10265814;28;20665;-85
2023/10/23 15:12:35;;;;;;;9.70;3.03;;;13.80;99.90;;;;;;10261289;28;20708;-85
2023/10/23 15:17:38;;;;;;;5.07;2.97;;;13.50;99.90;;;;;;10283916;28;20282;-86
2023/10/23 15:22:41;;;;;;;6.47;4.47;;;13.20;99.90;;;;;;10284023;28;20758;-85
2023/10/23 15:27:44;;;;;;;10.00;4.07;;;13.00;99.90;;;;;;10286034;28;20652;-85
2023/10/23 15:32:46;;;;;;;10.57;4.60;;;12.80;99.90;;;;;;10286138;28;20262;-85
2023/10/23 15:37:49;;;;;;;5.00;3.70;;;12.50;99.90;;;;;;10285301;28;20263;-85
2023/10/23 15:42:51;;;;;;;6.73;4.37;;;12.20;99.90;;;;;;10267734;28;20249;-85
2023/10/23 15:47:59;;;;;;;5.83;4.10;;;12.00;99.90;;;;;;10272628;28;20225;-84
2023/10/23 15:53:04;;;;;;;13.27;6.23;;;11.70;99.90;;;;;;10280795;28;20261;-84
2023/10/23 15:58:07;;;;;;;39.23;24.03;;;11.40;99.90;;;;;;10270026;28;20282;-84
2023/10/23 16:03:10;;;;;;;21.43;15.17;;;11.10;99.90;;;;;;10256551;28;20245;-85
2023/10/23 16:08:13;;;;;;;12.90;7.83;;;10.90;99.90;;;;;;10283975;28;20285;-85
2023/10/23 16:13:17;;;;;;;14.53;8.50;;;11.10;99.90;;;;;;10284791;28;20389;-85
2023/10/23 16:18:21;;;;;;;7.63;5.70;;;10.90;99.90;;;;;;10242586;29;20230;-86
2023/10/23 16:23:24;;;;;;;10.80;7.43;;;10.60;99.90;;;;;;10249538;28;20296;-86
2023/10/23 16:28:26;;;;;;;38.77;20.07;;;10.50;99.90;;;;;;10270413;28;20245;-85
2023/10/23 16:33:29;;;;;;;23.20;13.80;;;10.20;99.90;;;;;;10269556;28;20293;-85
2023/10/23 16:38:31;;;;;;;29.67;16.43;;;10.10;99.90;;;;;;10252654;28;20250;-86
2023/10/23 16:43:39;;;;;;;56.87;25.87;;;10.00;99.90;;;;;;9940503;28;9999787;-85
2023/10/23 16:48:42;;;;;;;84.03;36.80;;;10.00;99.90;;;;;;10287540;28;20696;-86
2023/10/23 16:53:45;;;;;;;51.37;24.10;;;9.90;99.90;;;;;;10270633;28;20256;-86
2023/10/23 16:58:47;;;;;;;28.37;16.30;;;9.70;99.90;;;;;;10281215;28;20225;-86
2023/10/23 17:03:50;;;;;;;36.50;18.80;;;9.70;99.90;;;;;;10262821;28;20948;-86
2023/10/23 17:08:52;;;;;;;44.60;25.13;;;9.70;99.90;;;;;;10285899;28;20312;-86
2023/10/23 17:13:56;;;;;;;40.03;22.17;;;9.50;99.90;;;;;;10289967;28;20262;-86
2023/10/23 17:18:58;;;;;;;51.20;26.07;;;9.30;99.90;;;;;;10289440;28;20249;-86
2023/10/23 17:24:01;;;;;;;41.20;22.10;;;9.20;99.90;;;;;;10266717;28;20284;-85
2023/10/23 17:29:05;;;;;;;39.50;20.87;;;9.20;99.90;;;;;;10255390;28;20237;-85
2023/10/23 17:34:08;;;;;;;35.57;18.60;;;9.00;99.90;;;;;;10287965;28;20261;-85
2023/10/23 17:39:10;;;;;;;27.73;16.03;;;9.00;99.90;;;;;;10282883;28;20265;-85
2023/10/23 17:44:13;;;;;;;29.90;17.43;;;9.00;99.90;;;;;;10286823;28;20681;-85
2023/10/23 17:49:18;;;;;;;37.27;22.43;;;9.00;99.90;;;;;;10255323;28;20921;-85
2023/10/23 17:54:21;;;;;;;30.67;17.30;;;8.90;99.90;;;;;;10289398;28;20275;-85
2023/10/23 17:59:23;;;;;;;41.67;23.37;;;9.00;99.90;;;;;;10266024;28;20230;-85
2023/10/23 18:04:26;;;;;;;29.17;17.23;;;8.80;99.90;;;;;;10238151;28;20256;-85
2023/10/23 18:09:29;;;;;;;33.37;18.00;;;8.70;99.90;;;;;;10263452;28;20710;-85
2023/10/23 18:14:31;;;;;;;26.57;15.53;;;8.50;99.90;;;;;;10276385;28;20262;-86
2023/10/23 18:19:34;;;;;;;22.63;14.53;;;8.60;99.90;;;;;;10267950;28;20225;-86
2023/10/23 18:24:37;;;;;;;27.27;13.90;;;8.50;99.90;;;;;;10288991;28;20693;-86
2023/10/23 18:29:40;;;;;;;23.57;13.77;;;8.50;99.90;;;;;;10289101;28;20971;-86
2023/10/23 18:34:43;;;;;;;20.83;11.27;;;8.30;99.90;;;;;;10252212;28;20261;-86
2023/10/23 18:39:45;;;;;;;15.10;11.47;;;8.30;99.90;;;;;;10259509;28;20268;-86
2023/10/23 18:44:48;;;;;;;22.27;12.70;;;8.10;99.90;;;;;;10270662;28;20241;-85
2023/10/23 18:49:51;;;;;;;24.23;13.33;;;7.90;99.90;;;;;;10244868;28;20292;-85
2023/10/23 18:54:53;;;;;;;16.20;9.87;;;7.90;99.90;;;;;;10282049;28;20289;-85
2023/10/23 18:59:57;;;;;;;19.83;13.03;;;8.10;99.90;;;;;;10258253;28;20229;-85
2023/10/23 19:05:00;;;;;;;16.77;10.77;;;8.00;99.90;;;;;;10286851;28;20233;-86
2023/10/23 19:10:05;;;;;;;21.70;15.53;;;7.90;99.90;;;;;;10284375;28;20953;-86
2023/10/23 19:15:08;;;;;;;17.43;13.23;;;7.80;99.90;;;;;;10268373;28;20241;-86
2023/10/23 19:20:11;;;;;;;25.47;14.57;;;7.90;99.90;;;;;;10246242;28;20238;-86
2023/10/23 19:25:14;;;;;;;21.87;13.40;;;7.80;99.90;;;;;;10252408;28;20288;-86
2023/10/23 19:30:17;;;;;;;20.97;12.60;;;7.70;99.90;;;;;;10286828;28;20673;-85
2023/10/23 19:35:20;;;;;;;25.43;12.87;;;7.80;99.90;;;;;;10269115;28;20677;-85
2023/10/23 19:40:23;;;;;;;23.67;14.23;;;7.70;99.90;;;;;;10269243;28;20280;-85
2023/10/23 19:45:27;;;;;;;25.13;15.93;;;7.50;99.90;;;;;;10281722;28;20237;-85
2023/10/23 19:50:29;;;;;;;20.67;13.57;;;7.50;99.90;;;;;;10268569;28;20300;-85
2023/10/23 19:55:33;;;;;;;15.43;11.10;;;7.50;99.90;;;;;;10284822;28;20279;-85
2023/10/23 20:00:47;;;;;;;41.20;21.67;;;7.50;99.90;;;;;;10266220;28;20299;-85
2023/10/23 20:05:52;;;;;;;39.63;23.87;;;7.50;99.90;;;;;;10278708;28;20221;-86
2023/10/23 20:10:55;;;;;;;37.87;23.87;;;7.40;99.90;;;;;;10285216;28;20381;-85
2023/10/23 20:16:04;;;;;;;36.80;21.97;;;7.30;99.90;;;;;;10283772;28;20617;-86
2023/10/23 20:21:07;;;;;;;44.73;24.43;;;7.40;99.90;;;;;;10277283;28;20266;-86
2023/10/23 20:26:15;;;;;;;38.23;21.73;;;7.30;99.90;;;;;;10272007;28;20868;-85
2023/10/23 20:31:18;;;;;;;44.50;17.57;;;7.30;99.90;;;;;;10287302;28;20261;-85
2023/10/23 20:36:22;;;;;;;41.43;22.07;;;7.30;99.90;;;;;;10303068;28;20281;-85
2023/10/23 20:41:24;;;;;;;129.83;40.53;;;7.10;99.90;;;;;;10303751;28;20264;-85
2023/10/23 20:46:28;;;;;;;51.87;27.07;;;7.00;99.90;;;;;;10299694;28;20244;-85
2023/10/23 20:51:31;;;;;;;63.00;24.20;;;6.90;99.90;;;;;;10284590;28;20276;-85
2023/10/23 20:56:33;;;;;;;82.53;32.03;;;7.00;99.90;;;;;;10282862;28;20249;-85
2023/10/23 21:01:36;;;;;;;68.87;29.77;;;6.90;99.90;;;;;;10308556;28;20622;-85
2023/10/23 21:06:39;;;;;;;66.00;31.60;;;7.00;99.90;;;;;;10303813;28;20842;-85
2023/10/23 21:11:41;;;;;;;60.03;29.67;;;7.00;99.90;;;;;;10302813;28;20284;-85
2023/10/23 21:16:44;;;;;;;48.40;27.27;;;7.00;99.90;;;;;;10301170;28;20225;-85
2023/10/23 21:21:48;;;;;;;52.90;25.70;;;6.90;99.90;;;;;;10285744;28;20655;-85
2023/10/23 21:26:50;;;;;;;47.70;27.37;;;6.90;99.90;;;;;;10275416;28;20309;-85
2023/10/23 21:31:53;;;;;;;20.57;12.40;;;7.00;99.90;;;;;;10305542;28;20253;-85
2023/10/23 21:36:56;;;;;;;47.13;24.33;;;7.00;99.90;;;;;;10312254;28;20572;-85
2023/10/23 21:41:58;;;;;;;38.00;22.93;;;7.20;99.90;;;;;;10288426;28;20257;-85
2023/10/23 21:47:01;;;;;;;32.23;18.87;;;7.20;99.90;;;;;;10306352;28;20251;-85
2023/10/23 21:52:04;;;;;;;36.43;22.80;;;7.10;99.90;;;;;;10302415;28;20265;-85
2023/10/23 21:57:07;;;;;;;39.23;22.40;;;7.00;99.90;;;;;;10303848;28;20232;-86
2023/10/23 22:02:23;;;;;;;49.73;24.10;;;6.90;99.90;;;;;;10321832;28;20228;-85
2023/10/23 22:07:26;;;;;;;41.13;23.07;;;7.00;99.90;;;;;;10310193;28;20225;-85
2023/10/23 22:12:29;;;;;;;34.43;20.73;;;6.90;99.90;;;;;;10304966;28;20260;-85
2023/10/23 22:17:32;;;;;;;33.33;18.43;;;6.90;99.90;;;;;;10317263;28;20263;-85
2023/10/23 22:22:34;;;;;;;32.60;20.90;;;7.00;99.90;;;;;;10314249;28;20276;-85
2023/10/23 22:27:37;;;;;;;28.53;18.23;;;7.00;99.90;;;;;;10289974;28;20245;-85
2023/10/23 22:32:39;;;;;;;38.90;21.23;;;7.10;99.90;;;;;;10289182;28;20257;-85
2023/10/23 22:37:42;;;;;;;30.10;19.17;;;7.00;99.90;;;;;;10289090;28;20237;-85
2023/10/23 22:43:05;;;;;;;30.87;20.73;;;7.00;99.90;;;;;;10288833;28;20233;-85
2023/10/23 22:48:07;;;;;;;36.53;21.03;;;7.00;99.90;;;;;;10288134;28;20288;-85
2023/10/23 22:53:10;;;;;;;24.70;17.50;;;7.00;99.90;;;;;;10272277;28;20269;-85
2023/10/23 22:58:16;;;;;;;35.57;22.83;;;7.30;99.90;;;;;;10271478;28;20680;-85
2023/10/23 23:03:19;;;;;;;35.10;20.03;;;7.30;99.90;;;;;;10287830;28;20248;-85
2023/10/23 23:08:23;;;;;;;35.40;20.57;;;7.30;99.90;;;;;;10288757;28;20233;-85
2023/10/23 23:13:26;;;;;;;38.70;21.83;;;7.20;99.90;;;;;;10288235;28;20698;-85
2023/10/23 23:18:29;;;;;;;29.43;18.40;;;7.10;99.90;;;;;;10288164;28;20225;-85
2023/10/23 23:23:31;;;;;;;39.80;20.43;;;7.20;99.90;;;;;;10287742;28;20471;-85
2023/10/23 23:28:34;;;;;;;22.83;15.80;;;7.00;99.90;;;;;;10287905;28;20300;-85
2023/10/23 23:33:37;;;;;;;36.93;21.43;;;7.10;99.90;;;;;;10287607;28;20257;-85
2023/10/23 23:38:39;;;;;;;26.03;17.27;;;7.30;99.90;;;;;;10287065;28;20265;-85
2023/10/23 23:43:42;;;;;;;30.43;17.13;;;7.00;99.90;;;;;;10286930;28;20244;-85
2023/10/23 23:48:44;;;;;;;21.47;15.30;;;6.90;99.90;;;;;;10286977;28;20658;-85
2023/10/23 23:53:47;;;;;;;28.67;16.93;;;6.80;99.90;;;;;;10286933;28;20269;-85
2023/10/23 23:58:49;;;;;;;26.77;17.13;;;6.80;99.90;;;;;;10287600;28;20241;-85
